This is the latest recevied weather packets stored in our database for station/object KC9DRE. If no packets are shown the sender has not sent any weather packets the latest 10 day(s).
| Time | Temp. | Humidity | Pressure | Rain* | Wind** | Luminosity | Snow |
|---|---|---|---|---|---|---|---|
| 1787937641 | 28.33° C | 58% | 1020.6 hPa | 0 mm | - | 258 W/m² | - |
| 1787937338 | 28.89° C | 53% | 1020.7 hPa | 0 mm | - | 210 W/m² | - |
| 1787937033 | 28.89° C | 55% | 1020.7 hPa | 0 mm | - | 863 W/m² | - |
| 1787936732 | 28.33° C | 58% | 1020.7 hPa | 0 mm | - | 855 W/m² | - |
| 1787936427 | 28.89° C | 57% | 1020.8 hPa | 0 mm | - | 851 W/m² | - |
| 1787936126 | 28.89° C | 57% | 1021 hPa | 0 mm | - | 821 W/m² | - |
| 1787935822 | 28.89° C | 59% | 1020.7 hPa | 0 mm | - | 808 W/m² | - |
| 1787935518 | 27.78° C | 59% | 1020.6 hPa | 0 mm | - | 814 W/m² | - |
| 1787935214 | 27.78° C | 62% | 1020.9 hPa | 0 mm | - | 350 W/m² | - |
| 1787934909 | 27.78° C | 63% | 1020.8 hPa | 0 mm | - | 248 W/m² | - |
| 1787934609 | 27.78° C | 60% | 1021 hPa | 0 mm | - | 848 W/m² | - |
| 1787934303 | 27.78° C | 62% | 1020.9 hPa | 0 mm | - | 880 W/m² | - |
| 1787934003 | 27.22° C | 63% | 1021 hPa | 0 mm | - | 856 W/m² | - |
| 1787933702 | 27.22° C | 64% | 1020.8 hPa | 0 mm | - | 154 W/m² | - |
| 1787933398 | 28.33° C | 63% | 1020.9 hPa | 0 mm | - | 390 W/m² | - |
| 1787933097 | 29.44° C | 59% | 1020.7 hPa | 0 mm | - | 158 W/m² | - |
| 1787932796 | 28.33° C | 63% | 1020.9 hPa | 0 mm | - | 797 W/m² | - |
| 1787932491 | 28.89° C | 61% | 1020.9 hPa | 0 mm | - | 782 W/m² | - |
| 1787932186 | 28.89° C | 61% | 1020.7 hPa | 0 mm | - | 767 W/m² | - |
| 1787931884 | 28.33° C | 62% | 1020.6 hPa | 0 mm | - | 709 W/m² | - |
| 1787931579 | 28.33° C | 62% | 1020.6 hPa | 0 mm | - | 712 W/m² | - |
| 1787931274 | 27.78° C | 64% | 1020.7 hPa | 0 mm | - | 664 W/m² | - |
| 1787930973 | 27.78° C | 67% | 1020.8 hPa | 0 mm | - | 655 W/m² | - |
| 1787930673 | 27.22° C | 68% | 1020.7 hPa | 0 mm | - | 639 W/m² | - |
| 1787930368 | 27.22° C | 65% | 1020.6 hPa | 0 mm | - | 628 W/m² | - |
* Rain latest hour (hover to see other rain measurements)
** Current wind speed in m/s (hover to see current wind gust speed)